Time;durP1;ratioP1;P1;durP2;ratioP2;P2;SDS_P1;SDS_P2;PMS_P1;PMS_P2;Temp;Humidity;BMP_temperature;BMP_pressure;BME280_temperature;BME280_humidity;BME280_pressure;Samples;Min_cycle;Max_cycle;Signal;HPM_P1;HPM_P2
2021/12/07 00:00:54;;;;;;;7.53;2.38;;;7.00;73.90;;;;;;5026277;28;20050;-72
2021/12/07 00:03:20;;;;;;;6.50;2.45;;;7.00;73.90;;;;;;5026986;28;20467;-74
2021/12/07 00:05:48;;;;;;;7.00;2.47;;;7.00;73.90;;;;;;5026155;28;20485;-74
2021/12/07 00:08:14;;;;;;;11.23;2.50;;;7.00;73.90;;;;;;5027162;28;20025;-74
2021/12/07 00:10:41;;;;;;;7.20;2.13;;;6.90;73.70;;;;;;5026698;28;20033;-72
2021/12/07 00:13:09;;;;;;;8.23;2.13;;;6.90;73.70;;;;;;5025259;28;20033;-74
2021/12/07 00:15:37;;;;;;;9.40;3.30;;;6.90;73.70;;;;;;5026776;28;20385;-74
2021/12/07 00:18:04;;;;;;;7.00;2.42;;;6.90;73.70;;;;;;5026326;28;20079;-74
2021/12/07 00:20:31;;;;;;;6.13;2.92;;;6.80;73.50;;;;;;5025394;28;20025;-73
2021/12/07 00:22:59;;;;;;;9.40;2.40;;;6.80;73.50;;;;;;5026607;28;20270;-74
2021/12/07 00:25:26;;;;;;;7.75;2.20;;;6.80;73.50;;;;;;5025753;28;20533;-74
2021/12/07 00:27:52;;;;;;;9.27;2.65;;;6.80;73.50;;;;;;5015268;28;20437;-74
2021/12/07 00:30:19;;;;;;;12.50;2.95;;;6.80;73.50;;;;;;5024917;28;20048;-73
2021/12/07 00:32:52;;;;;;;6.63;1.90;;;6.80;73.50;;;;;;5025020;28;20353;-74
2021/12/07 00:35:34;;;;;;;6.07;2.45;;;6.70;73.30;;;;;;5025940;28;20038;-73
2021/12/07 00:38:06;;;;;;;10.05;3.08;;;6.70;73.30;;;;;;5026267;28;20029;-73
2021/12/07 00:40:36;;;;;;;7.78;2.03;;;6.70;73.30;;;;;;5025791;28;20049;-73
2021/12/07 00:43:03;;;;;;;7.75;2.40;;;6.70;73.30;;;;;;5024863;28;20128;-73
2021/12/07 00:45:32;;;;;;;10.48;2.60;;;6.60;73.20;;;;;;5025494;28;20065;-74
2021/12/07 00:47:59;;;;;;;10.38;2.30;;;6.60;73.10;;;;;;5026086;28;20052;-73
2021/12/07 00:50:27;;;;;;;7.43;1.98;;;6.60;73.20;;;;;;5025152;28;20026;-72
2021/12/07 00:52:55;;;;;;;7.13;2.17;;;6.50;73.00;;;;;;5025097;28;20029;-74
2021/12/07 00:55:27;;;;;;;5.78;1.83;;;6.60;73.20;;;;;;5024691;28;20388;-73
2021/12/07 00:57:57;;;;;;;8.73;2.88;;;6.50;73.00;;;;;;5016383;28;20034;-73
2021/12/07 01:00:25;;;;;;;8.05;2.30;;;6.50;73.00;;;;;;5025888;28;20045;-73
2021/12/07 01:02:53;;;;;;;7.78;2.00;;;6.50;73.00;;;;;;5008314;28;20113;-73
2021/12/07 01:05:27;;;;;;;7.38;2.50;;;6.50;73.00;;;;;;5024783;28;20420;-73
2021/12/07 01:08:52;;;;;;;8.63;2.35;;;6.40;72.80;;;;;;5024037;28;20061;-73
2021/12/07 01:24:41;;;;;;;9.20;2.33;;;6.20;72.50;;;;;;5028039;28;20077;-73
2021/12/07 01:27:15;;;;;;;5.82;1.90;;;6.30;72.70;;;;;;5028573;28;20025;-74
2021/12/07 01:29:44;;;;;;;5.57;1.67;;;6.20;72.50;;;;;;5019101;28;20026;-74
2021/12/07 01:33:07;;;;;;;5.75;2.03;;;6.10;72.30;;;;;;5028351;28;20033;-73
2021/12/07 01:48:00;;;;;;;6.95;1.90;;;5.90;72.10;;;;;;5029121;28;20026;-74
2021/12/07 02:00:51;;;;;;;3.53;1.75;;;5.70;71.80;;;;;;5017915;28;20046;-73
2021/12/07 02:03:18;;;;;;;4.88;2.17;;;5.60;71.60;;;;;;5028231;28;20048;-72
2021/12/07 02:05:44;;;;;;;6.22;2.00;;;5.60;71.60;;;;;;5027851;28;20030;-72
2021/12/07 02:08:11;;;;;;;6.30;2.42;;;5.60;71.70;;;;;;5027876;28;20468;-73
2021/12/07 02:10:37;;;;;;;7.07;2.65;;;5.50;71.50;;;;;;5028248;28;20030;-73
2021/12/07 02:13:20;;;;;;;11.15;2.20;;;5.50;71.50;;;;;;5027018;28;20401;-73
2021/12/07 02:15:48;;;;;;;6.30;1.65;;;5.50;71.50;;;;;;5027369;28;20033;-74
2021/12/07 02:18:15;;;;;;;9.02;2.38;;;5.50;71.50;;;;;;5027465;28;20037;-73
2021/12/07 02:20:46;;;;;;;4.93;2.05;;;5.40;71.30;;;;;;5028954;28;20040;-73
2021/12/07 02:23:12;;;;;;;6.93;1.80;;;5.40;71.30;;;;;;5028581;28;20410;-72
2021/12/07 02:25:38;;;;;;;6.30;1.83;;;5.40;71.40;;;;;;5026964;28;20036;-73
2021/12/07 02:28:11;;;;;;;4.40;2.15;;;5.40;71.30;;;;;;5028929;28;20037;-74
2021/12/07 02:30:37;;;;;;;6.55;2.17;;;5.30;71.10;;;;;;5024627;28;20033;-73
2021/12/07 02:33:03;;;;;;;5.97;2.00;;;5.30;71.10;;;;;;5009042;28;20030;-73
2021/12/07 02:35:30;;;;;;;5.60;2.13;;;5.30;71.10;;;;;;5020468;28;20030;-73
2021/12/07 02:38:00;;;;;;;4.50;1.77;;;5.20;70.90;;;;;;5010324;28;20657;-72
2021/12/07 02:40:29;;;;;;;4.93;2.10;;;5.30;71.10;;;;;;5028845;28;20036;-72
2021/12/07 02:42:56;;;;;;;4.20;2.05;;;5.20;70.90;;;;;;5028616;28;20030;-73
2021/12/07 02:45:23;;;;;;;4.82;1.80;;;5.20;70.90;;;;;;5028601;28;20044;-73
2021/12/07 02:47:50;;;;;;;5.15;1.65;;;5.20;70.90;;;;;;5028843;28;20112;-73
2021/12/07 02:50:17;;;;;;;5.95;2.03;;;5.20;70.90;;;;;;5028233;28;20036;-73
2021/12/07 02:52:44;;;;;;;6.70;2.25;;;5.10;70.80;;;;;;5030048;28;20196;-73
2021/12/07 02:55:10;;;;;;;6.40;1.98;;;5.20;71.00;;;;;;5028852;28;20025;-73
2021/12/07 02:57:36;;;;;;;6.47;2.38;;;5.20;71.00;;;;;;5030008;28;20030;-73
2021/12/07 03:00:14;;;;;;;6.88;2.05;;;5.20;71.00;;;;;;5028387;28;20025;-73
2021/12/07 03:02:46;;;;;;;9.48;2.72;;;5.10;70.80;;;;;;5019120;28;20052;-72
2021/12/07 03:26:54;;;;;;;5.38;1.67;;;5.20;70.80;;;;;;5029273;28;20029;-73
2021/12/07 03:29:21;;;;;;;7.93;2.75;;;5.20;70.80;;;;;;5027873;28;20037;-73
2021/12/07 03:31:47;;;;;;;4.90;2.33;;;5.20;70.80;;;;;;5011394;28;20608;-72
2021/12/07 03:34:14;;;;;;;3.42;1.45;;;5.20;70.90;;;;;;5019337;28;20025;-73
2021/12/07 03:36:40;;;;;;;5.82;2.20;;;5.20;70.80;;;;;;5027985;28;20483;-72
2021/12/07 03:39:07;;;;;;;6.95;2.13;;;5.30;71.00;;;;;;5028598;28;20493;-73
2021/12/07 03:41:34;;;;;;;5.20;1.85;;;5.30;71.00;;;;;;5026920;28;20045;-73
2021/12/07 03:44:00;;;;;;;6.40;2.45;;;5.30;71.00;;;;;;5027929;28;20037;-72
2021/12/07 03:46:26;;;;;;;6.18;2.58;;;5.30;71.00;;;;;;5027422;28;20029;-73
2021/12/07 03:48:54;;;;;;;6.53;2.40;;;5.30;71.00;;;;;;5027508;28;20057;-72
2021/12/07 03:51:21;;;;;;;6.57;2.03;;;5.30;71.00;;;;;;5031034;28;20496;-73
2021/12/07 03:53:47;;;;;;;4.57;1.98;;;5.30;71.00;;;;;;5030630;28;20057;-71
2021/12/07 03:56:15;;;;;;;7.60;2.17;;;5.30;71.00;;;;;;5030718;28;20401;-72
2021/12/07 03:58:43;;;;;;;4.88;2.15;;;5.40;71.10;;;;;;5030570;28;20607;-72
2021/12/07 04:01:11;;;;;;;12.52;2.97;;;5.40;71.10;;;;;;5030475;28;20089;-72
2021/12/07 04:03:39;;;;;;;4.70;2.00;;;5.40;71.10;;;;;;5021860;28;20041;-73
2021/12/07 04:06:06;;;;;;;5.65;2.28;;;5.40;71.10;;;;;;5032148;28;20036;-73
2021/12/07 04:08:41;;;;;;;6.80;2.03;;;5.40;71.10;;;;;;5030634;28;20030;-75
2021/12/07 04:11:08;;;;;;;6.13;2.97;;;5.40;71.00;;;;;;5030350;28;20034;-74
2021/12/07 04:13:34;;;;;;;8.93;2.30;;;5.40;71.00;;;;;;5030460;28;20030;-73
2021/12/07 04:16:03;;;;;;;5.65;2.03;;;5.50;71.20;;;;;;5030131;28;20084;-74
2021/12/07 04:18:29;;;;;;;8.57;3.00;;;5.50;71.20;;;;;;5030383;28;20028;-74
2021/12/07 04:20:56;;;;;;;9.02;2.10;;;5.50;71.10;;;;;;5030372;28;20037;-74
2021/12/07 04:23:23;;;;;;;9.18;2.25;;;5.50;71.10;;;;;;5030363;28;20037;-75
2021/12/07 04:25:49;;;;;;;10.52;1.80;;;5.50;71.10;;;;;;5029972;28;20049;-74
2021/12/07 04:28:15;;;;;;;6.28;2.22;;;5.50;71.00;;;;;;5030056;28;20041;-74
2021/12/07 04:30:43;;;;;;;6.55;1.77;;;5.60;71.20;;;;;;5031075;28;20025;-73
2021/12/07 04:33:10;;;;;;;5.63;1.95;;;5.60;71.20;;;;;;5031096;28;20032;-73
2021/12/07 04:35:39;;;;;;;8.02;1.88;;;5.60;71.20;;;;;;5015995;28;20022;-73
2021/12/07 04:38:05;;;;;;;5.13;2.17;;;5.60;71.20;;;;;;5018601;28;20044;-74
2021/12/07 04:40:32;;;;;;;5.75;1.58;;;5.60;71.20;;;;;;5011080;28;20123;-72
2021/12/07 04:42:59;;;;;;;6.70;1.92;;;5.60;71.10;;;;;;5010029;28;20096;-74
2021/12/07 04:46:13;;;;;;;5.05;1.70;;;5.60;71.10;;;;;;5011265;28;20058;-72
2021/12/07 04:59:06;;;;;;;5.32;1.73;;;5.60;71.10;;;;;;5011289;28;20478;-72
2021/12/07 05:01:33;;;;;;;8.10;2.72;;;5.60;71.10;;;;;;5010919;28;20052;-73
2021/12/07 05:04:04;;;;;;;5.90;2.15;;;5.70;71.30;;;;;;5010499;28;20421;-72
2021/12/07 05:06:33;;;;;;;7.43;1.95;;;5.70;71.80;;;;;;5001370;28;20029;-73
2021/12/07 05:09:20;;;;;;;8.80;1.85;;;5.70;71.20;;;;;;5011350;28;20120;-72
2021/12/07 05:12:32;;;;;;;5.40;2.53;;;5.70;71.20;;;;;;5011052;28;20049;-72
2021/12/07 05:14:36;;;;;;;5.88;2.20;;;5.70;71.70;;;;;;5010118;28;20041;-73
2021/12/07 05:39:05;;;;;;;4.25;1.50;;;5.70;71.10;;;;;;5010740;28;20120;-72
2021/12/07 05:41:31;;;;;;;8.07;1.90;;;5.70;71.00;;;;;;5010863;28;20030;-72
2021/12/07 05:43:57;;;;;;;6.13;1.65;;;5.70;71.10;;;;;;5009515;28;20046;-72
2021/12/07 05:46:23;;;;;;;7.57;1.60;;;5.70;71.00;;;;;;5025432;28;20107;-73
2021/12/07 05:48:49;;;;;;;5.75;1.80;;;5.80;71.20;;;;;;5006610;28;20608;-72
2021/12/07 05:51:15;;;;;;;6.45;1.90;;;5.80;71.20;;;;;;5016947;28;20107;-73
2021/12/07 05:53:41;;;;;;;7.40;1.63;;;5.80;71.20;;;;;;5009884;28;20088;-73
2021/12/07 05:56:07;;;;;;;7.45;1.77;;;5.80;71.20;;;;;;5010372;28;20078;-73
2021/12/07 05:58:33;;;;;;;8.30;2.47;;;5.80;71.10;;;;;;5019462;28;20053;-74
2021/12/07 06:00:59;;;;;;;6.35;1.70;;;5.90;71.30;;;;;;5042197;28;20120;-72
2021/12/07 06:03:26;;;;;;;6.05;2.50;;;5.90;71.30;;;;;;5017844;28;20037;-73
2021/12/07 06:05:53;;;;;;;5.85;1.95;;;5.90;71.20;;;;;;5023391;28;20022;-72
2021/12/07 06:08:20;;;;;;;5.13;1.77;;;5.90;71.20;;;;;;5017654;28;20131;-74
2021/12/07 06:10:46;;;;;;;7.00;1.98;;;5.90;71.60;;;;;;5028937;28;20033;-73
2021/12/07 06:13:12;;;;;;;6.30;1.70;;;5.90;71.10;;;;;;5028811;28;20036;-73
2021/12/07 06:15:43;;;;;;;5.80;1.90;;;5.90;71.10;;;;;;5027219;28;20029;-72
2021/12/07 06:18:08;;;;;;;5.78;2.08;;;5.90;71.00;;;;;;5028425;28;20120;-73
2021/12/07 06:20:34;;;;;;;6.57;1.58;;;6.00;71.20;;;;;;5028433;28;20471;-73
2021/12/07 06:23:00;;;;;;;6.70;2.00;;;6.00;71.20;;;;;;5027240;28;20118;-73
2021/12/07 06:25:28;;;;;;;5.25;1.38;;;6.00;71.20;;;;;;5024558;28;20029;-73
2021/12/07 06:27:54;;;;;;;7.22;2.88;;;6.00;71.10;;;;;;5013591;28;20079;-73
2021/12/07 06:30:20;;;;;;;7.97;2.03;;;6.00;71.10;;;;;;5027087;28;20124;-72
2021/12/07 06:32:46;;;;;;;6.85;2.03;;;6.10;71.40;;;;;;5026894;28;20088;-73
2021/12/07 06:35:12;;;;;;;6.32;2.00;;;6.10;71.50;;;;;;5026764;28;20025;-72
2021/12/07 06:37:38;;;;;;;8.00;1.95;;;6.20;71.60;;;;;;5026864;28;20048;-73
2021/12/07 06:40:06;;;;;;;7.45;1.75;;;6.20;71.50;;;;;;5028412;28;20085;-74
2021/12/07 06:42:32;;;;;;;6.28;1.60;;;6.20;71.50;;;;;;5028644;28;20068;-73
2021/12/07 06:44:58;;;;;;;3.97;1.25;;;6.20;71.40;;;;;;5029128;28;20123;-74
2021/12/07 06:47:24;;;;;;;6.60;1.90;;;6.30;71.60;;;;;;5016630;28;20041;-76
2021/12/07 06:49:50;;;;;;;10.88;1.70;;;6.30;71.50;;;;;;5028544;28;20389;-74
2021/12/07 06:52:16;;;;;;;4.50;1.92;;;6.30;71.50;;;;;;5026526;28;20037;-73
2021/12/07 06:54:42;;;;;;;6.63;1.67;;;6.30;71.50;;;;;;5010402;28;20421;-74
2021/12/07 06:57:08;;;;;;;4.10;1.50;;;6.30;71.50;;;;;;5008567;28;20048;-74
2021/12/07 06:59:34;;;;;;;5.40;1.92;;;6.40;71.70;;;;;;5006574;28;20028;-74
2021/12/07 07:02:00;;;;;;;5.63;1.60;;;6.40;71.60;;;;;;5009770;28;20084;-77
2021/12/07 07:04:26;;;;;;;7.63;1.80;;;6.50;71.70;;;;;;5027623;28;20045;-74
2021/12/07 07:06:52;;;;;;;11.30;1.88;;;6.50;71.70;;;;;;5025536;28;20029;-74
2021/12/07 07:09:18;;;;;;;4.60;1.42;;;6.50;71.70;;;;;;5025461;28;20060;-73
2021/12/07 07:11:44;;;;;;;10.77;2.08;;;6.60;71.80;;;;;;5027987;28;20056;-73
2021/12/07 07:14:10;;;;;;;8.70;2.10;;;6.60;71.80;;;;;;5027727;28;20489;-73
2021/12/07 07:16:36;;;;;;;7.25;1.90;;;6.70;72.10;;;;;;5024421;28;20017;-74
2021/12/07 07:19:02;;;;;;;7.57;1.50;;;6.80;72.30;;;;;;5023639;28;20128;-74
2021/12/07 07:21:29;;;;;;;6.10;1.83;;;6.80;72.20;;;;;;5028014;28;20032;-73
2021/12/07 07:23:55;;;;;;;7.13;2.00;;;6.90;72.30;;;;;;5015972;28;20043;-75
2021/12/07 07:26:21;;;;;;;11.25;1.67;;;6.90;72.30;;;;;;5012204;28;20080;-74
2021/12/07 07:28:47;;;;;;;9.18;1.60;;;7.00;72.40;;;;;;5016862;28;20037;-74
2021/12/07 07:31:13;;;;;;;8.27;1.83;;;7.00;72.30;;;;;;5019748;28;20036;-75
2021/12/07 07:33:39;;;;;;;8.02;1.65;;;7.00;72.20;;;;;;5024338;28;20025;-74
2021/12/07 07:36:06;;;;;;;11.45;1.90;;;7.10;72.30;;;;;;5025238;28;20029;-74
2021/12/07 07:38:33;;;;;;;10.48;1.98;;;7.00;72.10;;;;;;5025694;28;20033;-75
2021/12/07 07:40:59;;;;;;;6.10;1.65;;;7.10;72.30;;;;;;5023985;28;20442;-74
2021/12/07 07:43:25;;;;;;;6.78;2.03;;;7.10;72.20;;;;;;5025694;28;20401;-74
2021/12/07 07:46:01;;;;;;;5.13;1.40;;;7.10;72.20;;;;;;5024359;28;20030;-74
2021/12/07 07:48:27;;;;;;;6.38;1.40;;;7.20;72.30;;;;;;5027462;28;20087;-74
2021/12/07 07:50:55;;;;;;;2.60;1.17;;;7.20;72.50;;;;;;5024662;28;20033;-74
2021/12/07 07:53:22;;;;;;;7.07;2.00;;;7.30;72.40;;;;;;5025169;28;20037;-74
2021/12/07 07:55:50;;;;;;;6.13;1.45;;;7.30;72.30;;;;;;5026912;28;20485;-74
2021/12/07 07:58:17;;;;;;;8.07;1.60;;;7.30;72.30;;;;;;5025076;28;20048;-74
2021/12/07 08:00:44;;;;;;;13.30;2.15;;;7.30;72.20;;;;;;5025475;28;20053;-73
2021/12/07 08:03:11;;;;;;;4.78;1.58;;;7.30;72.10;;;;;;5026413;28;20465;-74
2021/12/07 08:05:38;;;;;;;8.13;1.13;;;7.40;72.30;;;;;;5026678;28;20033;-73
2021/12/07 08:08:06;;;;;;;8.00;1.33;;;7.40;72.20;;;;;;5025238;28;20029;-73
2021/12/07 08:10:33;;;;;;;7.40;2.40;;;7.50;72.30;;;;;;5026577;28;20187;-73
2021/12/07 08:13:05;;;;;;;8.07;2.20;;;7.50;72.20;;;;;;5026352;28;20030;-74
2021/12/07 08:15:33;;;;;;;5.63;1.40;;;7.50;72.10;;;;;;5026935;28;20026;-74
2021/12/07 08:17:59;;;;;;;5.55;1.40;;;7.60;72.30;;;;;;5026407;28;20037;-74
2021/12/07 08:20:29;;;;;;;10.60;2.15;;;7.60;72.30;;;;;;5025481;28;20092;-73
2021/12/07 08:22:55;;;;;;;8.38;1.63;;;7.60;72.20;;;;;;5026472;28;20133;-73
2021/12/07 08:25:21;;;;;;;9.70;2.00;;;7.60;72.20;;;;;;5026435;28;20299;-73
2021/12/07 08:27:48;;;;;;;10.43;2.08;;;7.60;72.10;;;;;;5026327;28;20035;-74
2021/12/07 08:30:15;;;;;;;5.35;2.10;;;7.70;72.30;;;;;;5026311;28;20034;-73
2021/12/07 08:32:45;;;;;;;9.07;1.58;;;7.70;72.30;;;;;;5025278;28;20029;-73
2021/12/07 08:35:19;;;;;;;6.20;1.67;;;7.70;72.20;;;;;;5024896;28;20037;-73
2021/12/07 08:37:46;;;;;;;10.73;2.28;;;7.80;72.40;;;;;;5026289;28;20032;-74
2021/12/07 08:40:16;;;;;;;6.32;1.50;;;7.80;72.30;;;;;;5024518;28;20033;-73
2021/12/07 08:42:42;;;;;;;5.57;1.63;;;7.90;72.50;;;;;;5026327;28;20025;-73
2021/12/07 08:45:09;;;;;;;9.77;2.08;;;7.90;72.40;;;;;;5026105;28;20520;-74
2021/12/07 08:47:35;;;;;;;7.40;1.42;;;7.90;72.40;;;;;;5024785;28;20552;-74
2021/12/07 08:50:05;;;;;;;6.35;1.50;;;7.90;72.40;;;;;;5024670;28;20036;-74
2021/12/07 08:52:30;;;;;;;6.90;1.75;;;8.00;72.50;;;;;;5025733;28;20018;-73
2021/12/07 09:00:39;;;;;;;6.95;1.92;;;8.10;72.60;;;;;;5025976;28;20053;-73
2021/12/07 09:03:05;;;;;;;7.28;1.48;;;8.10;72.50;;;;;;5026142;28;20060;-75
2021/12/07 09:05:31;;;;;;;7.28;1.35;;;8.10;72.50;;;;;;5024750;28;20025;-73
2021/12/07 09:07:57;;;;;;;6.88;1.85;;;8.10;72.40;;;;;;5026019;28;20037;-75
2021/12/07 09:10:23;;;;;;;7.18;1.85;;;8.20;72.60;;;;;;5024230;28;20045;-72
2021/12/07 09:12:49;;;;;;;9.75;1.70;;;8.20;72.60;;;;;;5024878;28;20443;-73
2021/12/07 09:15:15;;;;;;;3.90;0.95;;;8.20;72.50;;;;;;5024792;28;20525;-73
2021/12/07 09:17:41;;;;;;;8.18;1.50;;;8.20;72.50;;;;;;5026241;28;20048;-74
2021/12/07 09:20:11;;;;;;;7.43;1.92;;;8.30;72.60;;;;;;5026340;28;20029;-74
2021/12/07 09:22:37;;;;;;;5.93;1.77;;;8.30;72.60;;;;;;5025907;28;20052;-75
2021/12/07 09:25:04;;;;;;;10.95;2.35;;;8.30;72.60;;;;;;5025114;28;20064;-75
2021/12/07 09:27:30;;;;;;;9.52;2.58;;;8.40;72.80;;;;;;5025620;28;20405;-74
2021/12/07 09:29:56;;;;;;;9.68;1.65;;;8.40;72.70;;;;;;5026612;28;20025;-74
2021/12/07 09:32:22;;;;;;;6.07;1.88;;;8.40;72.60;;;;;;5021770;28;20033;-73
2021/12/07 09:34:49;;;;;;;8.82;1.85;;;8.40;72.60;;;;;;5014190;28;20088;-73
2021/12/07 09:37:15;;;;;;;6.03;1.63;;;8.50;72.80;;;;;;5024191;28;20438;-74
2021/12/07 09:39:41;;;;;;;4.20;1.33;;;8.50;72.70;;;;;;5028676;28;20030;-75
2021/12/07 09:42:07;;;;;;;4.95;1.40;;;8.50;72.60;;;;;;5029393;28;20036;-75
2021/12/07 09:44:33;;;;;;;5.38;1.40;;;8.50;72.60;;;;;;5028189;28;20049;-74
2021/12/07 09:47:00;;;;;;;6.20;1.60;;;8.60;72.70;;;;;;5029727;28;20033;-74
2021/12/07 09:49:26;;;;;;;6.97;2.00;;;8.60;72.70;;;;;;5018154;28;20038;-75
2021/12/07 09:51:52;;;;;;;7.65;1.50;;;8.60;72.70;;;;;;5027945;28;20030;-76
2021/12/07 09:54:17;;;;;;;7.72;1.90;;;8.60;72.60;;;;;;5028665;28;20797;-78
2021/12/07 09:56:44;;;;;;;7.30;1.92;;;8.60;72.70;;;;;;5029101;28;20049;-75
2021/12/07 09:59:10;;;;;;;8.55;1.75;;;8.70;72.80;;;;;;5027643;28;20037;-76
2021/12/07 10:01:39;;;;;;;7.22;1.58;;;8.70;72.80;;;;;;5027894;28;20714;-73
2021/12/07 10:04:05;;;;;;;6.68;1.50;;;8.70;72.80;;;;;;5011555;28;20124;-74
2021/12/07 10:06:31;;;;;;;6.82;1.52;;;8.70;72.80;;;;;;5028799;28;20071;-75
2021/12/07 10:08:57;;;;;;;8.38;1.60;;;8.70;72.70;;;;;;5021456;28;20401;-75
2021/12/07 10:11:24;;;;;;;7.68;1.58;;;8.80;73.00;;;;;;5018032;28;20034;-75
2021/12/07 10:13:51;;;;;;;8.25;1.70;;;8.70;72.70;;;;;;5022694;28;20041;-75
2021/12/07 10:16:20;;;;;;;7.55;1.65;;;8.80;72.90;;;;;;5027777;28;20041;-74
2021/12/07 10:18:46;;;;;;;8.05;1.85;;;8.80;72.90;;;;;;5028658;28;20036;-72
2021/12/07 10:21:25;;;;;;;4.80;1.73;;;8.80;72.90;;;;;;5011483;28;20025;-74
2021/12/07 10:23:54;;;;;;;7.80;2.33;;;8.80;72.90;;;;;;5028028;28;20037;-74
2021/12/07 10:26:32;;;;;;;5.15;2.55;;;8.90;73.10;;;;;;5027862;28;20040;-73
2021/12/07 10:29:06;;;;;;;7.85;1.50;;;8.90;73.00;;;;;;5027288;28;20429;-76
2021/12/07 10:31:44;;;;;;;8.55;2.00;;;8.90;73.00;;;;;;5028947;28;20036;-76
2021/12/07 10:34:19;;;;;;;12.32;2.47;;;9.10;74.00;;;;;;5028788;28;20366;-76
2021/12/07 10:36:51;;;;;;;9.32;2.70;;;9.30;74.20;;;;;;5028304;28;20447;-76
2021/12/07 10:39:34;;;;;;;6.07;1.80;;;9.50;74.20;;;;;;5028553;28;20077;-74
2021/12/07 10:42:08;;;;;;;7.45;1.85;;;9.60;74.10;;;;;;5023444;28;20136;-74
2021/12/07 10:44:38;;;;;;;7.22;2.13;;;9.70;74.10;;;;;;5021369;28;20132;-74
2021/12/07 10:47:08;;;;;;;6.70;1.60;;;9.70;74.10;;;;;;5028214;28;20033;-74
2021/12/07 10:49:36;;;;;;;5.35;1.50;;;9.80;74.20;;;;;;5027047;28;20044;-72
2021/12/07 10:52:35;;;;;;;11.93;1.85;;;9.80;74.20;;;;;;5027825;28;20038;-74
2021/12/07 10:55:10;;;;;;;9.73;1.80;;;9.80;74.20;;;;;;5023318;28;20508;-72
2021/12/07 10:57:40;;;;;;;8.02;1.33;;;9.90;74.40;;;;;;5028625;28;20033;-75
2021/12/07 11:00:21;;;;;;;3.58;1.30;;;9.90;74.40;;;;;;5026699;28;20037;-73
2021/12/07 11:03:00;;;;;;;11.02;1.85;;;9.90;74.30;;;;;;5028207;28;20134;-75
2021/12/07 11:05:38;;;;;;;4.82;1.30;;;10.00;74.50;;;;;;5027555;28;20036;-75
2021/12/07 11:08:06;;;;;;;7.82;1.90;;;10.00;74.40;;;;;;5022320;28;20626;-74
2021/12/07 11:10:36;;;;;;;5.68;1.75;;;10.00;74.40;;;;;;5018998;28;20558;-75
2021/12/07 11:15:36;;;;;;;8.05;1.98;;;10.00;74.40;;;;;;5027636;28;20502;-75
2021/12/07 11:18:08;;;;;;;8.40;1.77;;;10.10;74.60;;;;;;5026219;28;20029;-75
2021/12/07 11:20:35;;;;;;;6.18;1.48;;;10.10;74.60;;;;;;5026338;28;20053;-74
2021/12/07 11:23:13;;;;;;;5.72;1.65;;;10.10;74.50;;;;;;5026377;28;20468;-75
2021/12/07 11:29:39;;;;;;;5.50;1.77;;;10.20;74.60;;;;;;5026595;28;20452;-74
2021/12/07 11:31:35;;;;;;;5.57;1.50;;;10.50;74.60;;;;;;5027444;28;20497;-75
2021/12/07 11:34:12;;;;;;;4.85;2.45;;;10.70;74.60;;;;;;5027333;28;20029;-75
2021/12/07 11:36:49;;;;;;;3.35;1.08;;;10.80;74.40;;;;;;5027047;28;20040;-74
2021/12/07 11:39:47;;;;;;;5.30;1.30;;;10.90;74.30;;;;;;5027461;28;20117;-74
2021/12/07 11:42:26;;;;;;;3.78;1.33;;;11.00;74.20;;;;;;5025135;28;20040;-75
2021/12/07 11:45:07;;;;;;;6.65;1.63;;;11.20;74.30;;;;;;5025935;28;20095;-73
2021/12/07 11:47:34;;;;;;;4.00;0.90;;;11.30;74.20;;;;;;5026045;28;20060;-73
2021/12/07 11:50:12;;;;;;;3.35;1.00;;;11.40;74.20;;;;;;5026787;28;20037;-74
2021/12/07 11:52:38;;;;;;;6.30;1.90;;;11.50;74.10;;;;;;5026725;28;20036;-74
2021/12/07 11:55:06;;;;;;;5.93;1.48;;;11.60;74.10;;;;;;5026731;28;20472;-73
2021/12/07 11:57:32;;;;;;;4.43;1.20;;;11.70;74.00;;;;;;5026834;28;20099;-74
2021/12/07 11:59:58;;;;;;;6.55;1.23;;;11.80;74.20;;;;;;5025827;28;20029;-74
2021/12/07 12:02:24;;;;;;;6.32;2.15;;;11.80;73.90;;;;;;5026335;28;20487;-74
2021/12/07 12:04:50;;;;;;;4.63;1.20;;;11.90;74.00;;;;;;5025409;28;20292;-75
2021/12/07 12:07:19;;;;;;;4.72;1.20;;;11.90;73.90;;;;;;5024992;28;20072;-74
2021/12/07 12:09:49;;;;;;;5.90;1.25;;;12.00;74.00;;;;;;5024638;28;20968;-75
2021/12/07 12:12:40;;;;;;;4.22;1.10;;;12.00;74.00;;;;;;5025817;28;20044;-73
2021/12/07 12:15:37;;;;;;;6.72;1.20;;;12.00;74.00;;;;;;5023890;28;20068;-73
2021/12/07 12:18:33;;;;;;;5.65;1.38;;;12.00;74.10;;;;;;5026671;28;20041;-74
2021/12/07 12:21:05;;;;;;;5.72;1.30;;;11.90;74.00;;;;;;5024951;28;20033;-75
2021/12/07 12:24:20;;;;;;;4.47;2.13;;;11.90;74.10;;;;;;5025150;28;20050;-74
2021/12/07 12:26:47;;;;;;;3.30;0.90;;;11.90;74.20;;;;;;5024752;28;20040;-73
2021/12/07 12:29:25;;;;;;;6.95;1.75;;;11.90;74.20;;;;;;5026776;28;20532;-74
2021/12/07 12:31:57;;;;;;;5.70;1.55;;;11.90;74.30;;;;;;5025191;28;20032;-76
2021/12/07 12:34:25;;;;;;;5.80;1.08;;;11.80;74.20;;;;;;5025748;28;20033;-75
2021/12/07 12:37:19;;;;;;;4.60;1.27;;;11.70;74.10;;;;;;5026171;28;20029;-75
2021/12/07 12:40:10;;;;;;;8.95;2.08;;;11.60;74.00;;;;;;5024871;28;20029;-74
2021/12/07 12:42:40;;;;;;;5.93;1.45;;;11.40;73.90;;;;;;5026864;28;20576;-76
2021/12/07 12:45:27;;;;;;;3.00;1.63;;;11.20;73.90;;;;;;5025159;28;20096;-74
2021/12/07 12:47:57;;;;;;;6.43;1.70;;;11.10;73.90;;;;;;5025864;28;20492;-75
2021/12/07 12:50:41;;;;;;;5.07;1.50;;;11.00;74.10;;;;;;5025790;28;20159;-74
2021/12/07 12:53:13;;;;;;;5.05;1.45;;;10.90;74.10;;;;;;5026088;28;20437;-75
2021/12/07 12:55:44;;;;;;;7.35;1.55;;;10.80;74.00;;;;;;5026858;28;20034;-74
2021/12/07 12:58:38;;;;;;;4.55;1.40;;;10.80;74.20;;;;;;5026011;28;20048;-74
2021/12/07 13:01:10;;;;;;;6.20;1.55;;;10.70;74.10;;;;;;5026124;28;20072;-73
2021/12/07 13:04:00;;;;;;;4.95;1.52;;;10.70;74.10;;;;;;5026930;28;20041;-73
2021/12/07 13:06:31;;;;;;;7.18;1.90;;;10.60;74.00;;;;;;5026265;28;20057;-75
2021/12/07 13:09:09;;;;;;;4.82;1.70;;;10.60;73.90;;;;;;5025286;28;20026;-73
2021/12/07 13:11:45;;;;;;;4.78;1.67;;;10.70;74.10;;;;;;5025981;28;20053;-73
2021/12/07 13:14:12;;;;;;;7.20;2.08;;;10.70;74.00;;;;;;5027818;28;20030;-74
2021/12/07 13:17:14;;;;;;;7.07;2.28;;;10.70;73.90;;;;;;5029202;28;20500;-73
2021/12/07 13:20:03;;;;;;;5.57;1.70;;;10.80;73.90;;;;;;5007225;28;20512;-74
2021/12/07 13:22:52;;;;;;;8.20;1.80;;;10.80;73.60;;;;;;5029061;28;20029;-74
2021/12/07 13:25:21;;;;;;;8.73;2.10;;;10.90;73.70;;;;;;5029894;28;20614;-73
2021/12/07 13:28:07;;;;;;;6.95;2.28;;;10.90;73.60;;;;;;5029569;28;20025;-73
2021/12/07 13:30:45;;;;;;;10.25;1.88;;;10.90;73.40;;;;;;5032295;28;20030;-73
2021/12/07 13:33:21;;;;;;;10.60;2.55;;;10.90;73.40;;;;;;5012292;28;20165;-73
2021/12/07 13:35:52;;;;;;;11.15;2.42;;;10.90;73.40;;;;;;5030262;28;20281;-72
2021/12/07 13:38:20;;;;;;;9.48;1.90;;;10.90;73.40;;;;;;5029183;28;20029;-74
2021/12/07 13:40:48;;;;;;;8.93;2.03;;;10.90;73.30;;;;;;5029773;28;20445;-73
2021/12/07 13:43:37;;;;;;;7.88;2.92;;;10.90;73.30;;;;;;5029083;28;20354;-73
2021/12/07 13:46:27;;;;;;;8.73;3.38;;;10.90;73.20;;;;;;5029588;28;20032;-73
2021/12/07 13:49:06;;;;;;;14.05;3.35;;;10.90;73.20;;;;;;5029497;28;20494;-73
2021/12/07 13:51:32;;;;;;;11.27;2.38;;;10.90;73.30;;;;;;5029506;28;20029;-72
2021/12/07 13:54:00;;;;;;;8.77;2.58;;;10.90;73.30;;;;;;5027674;28;20034;-72
2021/12/07 13:56:32;;;;;;;11.63;2.35;;;10.90;73.30;;;;;;5021804;28;20115;-73
2021/12/07 13:59:08;;;;;;;11.75;2.72;;;11.00;73.40;;;;;;5028887;28;20056;-73
2021/12/07 14:01:36;;;;;;;15.38;3.25;;;11.10;73.50;;;;;;5029423;28;20695;-72
2021/12/07 14:04:04;;;;;;;8.38;2.03;;;11.10;73.40;;;;;;5029280;28;20519;-71
2021/12/07 14:06:32;;;;;;;15.20;2.78;;;11.20;73.40;;;;;;5027885;28;20068;-73
2021/12/07 14:09:03;;;;;;;11.23;2.88;;;11.20;73.30;;;;;;5028849;28;20033;-75
2021/12/07 14:11:29;;;;;;;11.70;3.03;;;11.20;73.20;;;;;;5027903;28;20056;-71
2021/12/07 14:13:55;;;;;;;11.13;2.38;;;11.20;73.20;;;;;;5028856;28;20128;-73
2021/12/07 14:16:24;;;;;;;17.92;3.20;;;11.20;73.20;;;;;;5027920;28;20520;-73
2021/12/07 14:18:51;;;;;;;14.00;3.13;;;11.10;73.10;;;;;;5028783;28;20033;-73
2021/12/07 14:21:17;;;;;;;12.45;3.65;;;11.10;73.10;;;;;;5028333;28;20030;-73
2021/12/07 14:23:45;;;;;;;12.60;3.55;;;11.10;73.30;;;;;;5026762;28;20072;-72
2021/12/07 14:26:14;;;;;;;12.82;3.05;;;11.00;73.20;;;;;;5027379;28;20348;-73
2021/12/07 14:28:56;;;;;;;14.82;3.38;;;11.00;73.20;;;;;;5019295;28;20059;-74
2021/12/07 14:31:28;;;;;;;12.90;3.00;;;11.00;73.30;;;;;;5014855;28;20029;-72
2021/12/07 14:34:00;;;;;;;21.83;3.97;;;11.00;73.40;;;;;;5020361;28;20048;-71
2021/12/07 14:36:32;;;;;;;12.82;3.90;;;11.10;73.70;;;;;;5028239;28;20489;-72
2021/12/07 14:39:03;;;;;;;12.98;3.53;;;11.10;73.70;;;;;;5027948;28;20029;-73
2021/12/07 14:41:29;;;;;;;14.73;4.65;;;11.20;73.80;;;;;;5027914;28;20261;-72
2021/12/07 14:43:56;;;;;;;16.27;4.05;;;11.20;73.70;;;;;;5028066;28;20140;-73
2021/12/07 14:46:25;;;;;;;18.25;5.07;;;11.20;73.70;;;;;;5021602;28;20502;-73
2021/12/07 14:48:52;;;;;;;11.27;4.10;;;11.20;73.70;;;;;;5018540;28;20029;-73
2021/12/07 14:51:27;;;;;;;19.33;4.75;;;11.10;73.60;;;;;;5027003;28;20044;-71